createdAt,value
2019-05-29T00:00:24.382Z,4.47
2019-05-29T00:02:53.999Z,6.03
2019-05-29T00:05:23.321Z,5.93
2019-05-29T00:07:52.836Z,6.07
2019-05-29T00:10:22.359Z,6.73
2019-05-29T00:12:51.941Z,7.93
2019-05-29T00:15:21.197Z,4.43
2019-05-29T00:17:50.437Z,6.53
2019-05-29T00:20:19.685Z,5.70
2019-05-29T00:22:48.892Z,4.60
2019-05-29T00:25:18.851Z,4.97
2019-05-29T00:27:48.194Z,5.87
2019-05-29T00:30:17.513Z,5.37
2019-05-29T00:32:46.661Z,6.87
2019-05-29T00:35:16.411Z,6.50
2019-05-29T00:37:45.627Z,8.10
2019-05-29T00:40:15.543Z,5.50
2019-05-29T00:42:44.726Z,4.20
2019-05-29T00:45:15.254Z,5.97
2019-05-29T00:47:45.119Z,5.77
2019-05-29T00:50:14.680Z,5.00
2019-05-29T00:52:43.901Z,4.87
2019-05-29T00:55:14.567Z,5.10
2019-05-29T00:57:44.461Z,4.73
2019-05-29T01:00:15.265Z,6.50
2019-05-29T01:02:44.562Z,5.00
2019-05-29T01:05:14.001Z,5.50
2019-05-29T01:07:43.726Z,4.93
2019-05-29T01:10:14.611Z,5.53
2019-05-29T01:12:43.933Z,5.47
2019-05-29T01:15:15.382Z,7.00
2019-05-29T01:17:45.049Z,7.17
2019-05-29T01:20:15.968Z,7.43
2019-05-29T01:22:45.319Z,7.90
2019-05-29T01:25:14.860Z,7.00
2019-05-29T01:27:44.159Z,5.83
2019-05-29T01:30:13.627Z,6.33
2019-05-29T01:32:42.800Z,5.60
2019-05-29T01:35:13.661Z,6.03
2019-05-29T01:37:43.392Z,8.30
2019-05-29T01:40:21.026Z,6.43
2019-05-29T01:42:43.507Z,9.63
2019-05-29T01:45:12.883Z,6.33
2019-05-29T01:47:42.480Z,8.03
2019-05-29T01:50:12.403Z,6.40
2019-05-29T01:52:41.634Z,6.67
2019-05-29T01:55:11.060Z,8.63
2019-05-29T01:57:40.216Z,7.40
2019-05-29T02:00:10.004Z,6.30
2019-05-29T02:02:39.240Z,7.40
2019-05-29T02:05:08.728Z,6.57
2019-05-29T02:07:38.252Z,6.53
2019-05-29T02:10:08.158Z,7.70
2019-05-29T02:12:37.399Z,6.53
2019-05-29T02:15:21.098Z,7.93
2019-05-29T02:17:38.394Z,6.97
2019-05-29T02:20:08.639Z,6.73
2019-05-29T02:22:37.818Z,8.10
2019-05-29T02:25:07.697Z,8.30
2019-05-29T02:27:36.928Z,8.83
2019-05-29T02:30:07.039Z,10.70
2019-05-29T02:32:36.565Z,8.27
2019-05-29T02:35:06.244Z,8.07
2019-05-29T02:37:35.489Z,9.77
2019-05-29T02:40:05.961Z,7.53
2019-05-29T02:42:35.208Z,10.13
2019-05-29T02:45:05.761Z,8.00
2019-05-29T02:47:35.001Z,7.23
2019-05-29T02:50:05.331Z,7.00
2019-05-29T02:52:34.577Z,7.87
2019-05-29T02:55:04.577Z,8.97
2019-05-29T02:57:34.202Z,8.07
2019-05-29T03:00:04.185Z,8.60
2019-05-29T03:02:33.346Z,9.10
2019-05-29T03:05:02.589Z,9.40
2019-05-29T03:07:32.818Z,7.87
2019-05-29T03:10:02.194Z,7.30
2019-05-29T03:12:33.494Z,8.10
2019-05-29T03:15:03.300Z,7.00
2019-05-29T03:17:33.794Z,7.67
2019-05-29T03:20:03.125Z,8.03
2019-05-29T03:22:33.735Z,9.10
2019-05-29T03:25:03.920Z,9.00
2019-05-29T03:27:34.002Z,7.90
2019-05-29T03:30:03.932Z,6.70
2019-05-29T03:32:42.207Z,8.03
2019-05-29T03:35:04.608Z,8.50
2019-05-29T03:37:34.447Z,8.80
2019-05-29T03:40:05.024Z,8.17
2019-05-29T03:42:34.591Z,8.10
2019-05-29T03:45:04.063Z,8.53
2019-05-29T03:47:35.066Z,8.70
2019-05-29T03:50:05.415Z,7.90
2019-05-29T03:52:34.893Z,7.70
2019-05-29T03:55:04.557Z,8.33
2019-05-29T03:57:35.704Z,7.03
2019-05-29T04:00:05.901Z,6.77
2019-05-29T04:02:35.642Z,7.43
2019-05-29T04:05:07.455Z,7.93
2019-05-29T04:07:38.056Z,8.00
2019-05-29T04:10:08.481Z,7.97
2019-05-29T04:12:38.229Z,7.27
2019-05-29T04:15:08.417Z,7.00
2019-05-29T04:17:39.560Z,8.23
2019-05-29T04:20:09.498Z,10.03
2019-05-29T04:22:44.618Z,6.60
2019-05-29T04:25:14.494Z,6.97
2019-05-29T04:27:44.265Z,7.10
2019-05-29T04:30:13.889Z,7.23
2019-05-29T04:32:43.105Z,7.47
2019-05-29T04:35:12.366Z,7.70
2019-05-29T04:37:41.590Z,8.17
2019-05-29T04:40:11.326Z,6.53
2019-05-29T04:42:40.582Z,7.77
2019-05-29T04:45:10.004Z,6.73
2019-05-29T04:47:39.712Z,8.33
2019-05-29T04:50:09.701Z,7.07
2019-05-29T04:52:40.173Z,10.30
2019-05-29T04:55:10.312Z,7.43
2019-05-29T04:57:39.563Z,7.97
2019-05-29T05:00:09.429Z,7.20
2019-05-29T05:02:39.430Z,8.33
2019-05-29T05:05:09.663Z,7.60
2019-05-29T05:07:39.670Z,6.83
2019-05-29T05:10:09.807Z,7.00
2019-05-29T05:12:40.100Z,10.27
2019-05-29T05:15:09.822Z,8.10
2019-05-29T05:17:40.151Z,8.80
2019-05-29T05:20:10.966Z,6.90
2019-05-29T05:22:41.078Z,8.40
2019-05-29T05:25:10.890Z,6.67
2019-05-29T05:27:40.610Z,7.03
2019-05-29T05:30:10.291Z,8.27
2019-05-29T05:32:40.933Z,7.07
2019-05-29T05:35:14.213Z,6.73
2019-05-29T05:37:41.718Z,6.50
2019-05-29T05:40:11.193Z,7.60
2019-05-29T05:42:41.265Z,6.47
2019-05-29T05:45:10.708Z,5.30
2019-05-29T05:47:54.676Z,6.57
2019-05-29T05:50:12.182Z,5.70
2019-05-29T05:52:41.702Z,7.73
2019-05-29T05:55:11.278Z,6.27
2019-05-29T05:57:41.757Z,5.80
2019-05-29T06:00:11.352Z,7.57
2019-05-29T06:02:40.600Z,6.30
2019-05-29T06:05:11.111Z,8.57
2019-05-29T06:07:40.716Z,6.50
2019-05-29T06:10:10.180Z,6.70
2019-05-29T06:12:40.502Z,7.40
2019-05-29T06:15:09.975Z,6.93
2019-05-29T06:17:40.735Z,8.30
2019-05-29T06:20:10.007Z,6.50
2019-05-29T06:22:39.314Z,6.10
2019-05-29T06:25:09.022Z,6.50
2019-05-29T06:27:39.204Z,8.40
2019-05-29T06:30:09.796Z,7.40
2019-05-29T06:32:39.581Z,6.50
2019-05-29T06:35:08.861Z,6.60
2019-05-29T06:37:38.105Z,7.57
2019-05-29T06:40:08.250Z,8.83
2019-05-29T06:42:37.804Z,8.30
2019-05-29T06:45:08.418Z,7.53
2019-05-29T06:47:38.788Z,8.00
2019-05-29T06:50:08.535Z,8.17
2019-05-29T06:52:37.714Z,8.27
2019-05-29T06:55:07.154Z,7.93
2019-05-29T06:57:37.991Z,9.17
2019-05-29T07:00:07.915Z,8.37
2019-05-29T07:02:38.251Z,8.27
2019-05-29T07:05:08.037Z,10.27
2019-05-29T07:07:38.302Z,10.03
2019-05-29T07:10:08.095Z,9.23
2019-05-29T07:12:38.367Z,9.30
2019-05-29T07:15:08.268Z,9.93
2019-05-29T07:17:40.412Z,9.23
2019-05-29T07:20:11.085Z,10.10
2019-05-29T07:22:40.893Z,9.60
2019-05-29T07:25:10.154Z,9.27
2019-05-29T07:27:40.762Z,11.40
2019-05-29T07:30:10.562Z,9.70
2019-05-29T07:32:40.988Z,10.40
2019-05-29T07:35:11.920Z,10.73
2019-05-29T07:37:41.723Z,9.83
2019-05-29T07:40:14.294Z,10.43
2019-05-29T07:42:50.144Z,12.20
2019-05-29T07:45:15.278Z,11.10
2019-05-29T07:47:44.863Z,12.67
2019-05-29T07:50:15.251Z,10.83
2019-05-29T07:52:45.370Z,11.60
2019-05-29T07:55:16.089Z,11.77
2019-05-29T07:57:46.885Z,10.50
2019-05-29T08:00:17.448Z,11.87
2019-05-29T08:02:47.504Z,12.10
2019-05-29T08:05:17.785Z,11.43
2019-05-29T08:07:47.573Z,11.63
2019-05-29T08:10:17.502Z,11.67
2019-05-29T08:12:51.176Z,12.70
2019-05-29T08:15:18.305Z,11.87
2019-05-29T08:17:48.168Z,9.97
2019-05-29T08:20:17.734Z,11.73
2019-05-29T08:22:48.414Z,13.40
2019-05-29T08:25:18.176Z,10.67
2019-05-29T08:27:48.764Z,12.33
2019-05-29T08:30:18.511Z,10.03
2019-05-29T08:32:49.244Z,9.87
2019-05-29T08:35:18.621Z,9.23
2019-05-29T08:37:49.133Z,10.30
2019-05-29T08:40:21.531Z,10.53
2019-05-29T08:42:56.137Z,10.23
2019-05-29T08:45:25.460Z,9.97
2019-05-29T08:47:54.798Z,8.97
2019-05-29T08:50:24.129Z,9.30
2019-05-29T08:52:53.653Z,10.00
2019-05-29T08:55:23.249Z,10.80
2019-05-29T08:57:52.548Z,10.70
2019-05-29T09:00:22.146Z,10.50
2019-05-29T09:02:51.318Z,9.30
2019-05-29T09:05:22.438Z,10.03
2019-05-29T09:07:54.249Z,9.70
2019-05-29T09:10:23.297Z,10.03
2019-05-29T09:13:03.873Z,10.00
2019-05-29T09:15:23.835Z,9.80
2019-05-29T09:17:53.204Z,9.70
2019-05-29T09:20:37.103Z,10.07
2019-05-29T09:22:53.574Z,8.90
2019-05-29T09:25:23.290Z,9.47
2019-05-29T09:27:52.660Z,8.67
2019-05-29T09:30:23.547Z,10.63
2019-05-29T09:32:53.372Z,9.43
2019-05-29T09:35:24.610Z,9.17
2019-05-29T09:37:54.021Z,8.93
2019-05-29T09:40:23.231Z,9.63
2019-05-29T09:42:52.592Z,9.77
2019-05-29T09:45:21.854Z,9.27
2019-05-29T09:47:51.222Z,8.27
2019-05-29T09:50:23.164Z,8.13
2019-05-29T09:52:54.525Z,8.87
2019-05-29T09:55:23.181Z,9.37
2019-05-29T09:57:54.140Z,9.23
2019-05-29T10:00:24.226Z,9.00
2019-05-29T10:02:54.319Z,8.40
2019-05-29T10:05:24.748Z,8.33
2019-05-29T10:07:55.097Z,8.73
2019-05-29T10:10:25.326Z,9.03
2019-05-29T10:12:55.404Z,8.83
2019-05-29T10:15:25.748Z,9.23
2019-05-29T10:17:55.876Z,9.60
2019-05-29T10:20:26.211Z,8.27
2019-05-29T10:22:55.626Z,7.37
2019-05-29T10:25:26.343Z,7.60
2019-05-29T10:27:55.675Z,6.40
2019-05-29T10:30:26.874Z,8.13
2019-05-29T10:32:56.415Z,7.27
2019-05-29T10:35:25.848Z,7.07
2019-05-29T10:37:55.142Z,7.80
2019-05-29T10:40:24.394Z,7.37
2019-05-29T10:42:53.738Z,7.97
2019-05-29T10:45:23.387Z,10.10
2019-05-29T10:47:54.115Z,8.17
2019-05-29T10:50:23.544Z,10.17
2019-05-29T10:52:52.750Z,7.53
2019-05-29T10:55:23.523Z,7.90
2019-05-29T10:57:53.211Z,7.90
2019-05-29T11:00:22.700Z,7.93
2019-05-29T11:02:53.493Z,7.40
2019-05-29T11:05:23.378Z,9.03
2019-05-29T11:07:53.820Z,7.70
2019-05-29T11:10:23.738Z,7.23
2019-05-29T11:12:54.554Z,7.50
2019-05-29T11:15:24.250Z,9.10
2019-05-29T11:17:53.533Z,9.03
2019-05-29T11:20:22.924Z,7.77
2019-05-29T11:22:52.241Z,8.00
2019-05-29T11:25:26.772Z,8.33
2019-05-29T11:27:53.178Z,7.93
2019-05-29T11:30:23.548Z,7.57
2019-05-29T11:32:55.206Z,7.37
2019-05-29T11:35:24.329Z,6.53
2019-05-29T11:37:54.620Z,7.27
2019-05-29T11:40:23.921Z,6.90
2019-05-29T11:42:54.689Z,8.80
2019-05-29T11:45:24.117Z,7.70
2019-05-29T11:47:56.306Z,6.63
2019-05-29T11:50:24.779Z,7.20
2019-05-29T11:52:54.838Z,7.53
2019-05-29T11:55:24.471Z,7.27
2019-05-29T11:57:53.867Z,7.73
2019-05-29T12:00:23.426Z,7.90
2019-05-29T12:02:53.926Z,8.07
2019-05-29T12:05:23.788Z,7.20
2019-05-29T12:07:53.548Z,8.07
2019-05-29T12:10:23.966Z,7.60
2019-05-29T12:12:53.379Z,7.87
2019-05-29T12:15:23.109Z,7.33
2019-05-29T12:17:58.623Z,7.77
2019-05-29T12:20:27.663Z,8.40
2019-05-29T12:23:18.642Z,7.80
2019-05-29T12:25:26.205Z,9.73
2019-05-29T12:27:57.349Z,7.27
2019-05-29T12:30:26.551Z,7.93
2019-05-29T12:32:56.797Z,8.37
2019-05-29T12:35:26.310Z,9.17
2019-05-29T12:37:55.659Z,8.33
2019-05-29T12:40:25.204Z,9.90
2019-05-29T12:42:55.681Z,9.27
2019-05-29T12:45:25.404Z,9.20
2019-05-29T12:47:56.528Z,9.17
2019-05-29T12:50:27.060Z,9.87
2019-05-29T12:52:57.572Z,9.30
2019-05-29T12:55:27.229Z,8.50
2019-05-29T12:57:58.020Z,9.43
2019-05-29T13:00:28.123Z,10.43
2019-05-29T13:02:58.719Z,9.40
2019-05-29T13:05:28.433Z,9.50
2019-05-29T13:07:58.861Z,9.90
2019-05-29T13:10:31.017Z,10.70
2019-05-29T13:13:07.945Z,9.23
2019-05-29T13:15:31.012Z,9.60
2019-05-29T13:18:05.813Z,9.47
2019-05-29T13:20:32.374Z,9.13
2019-05-29T13:23:09.680Z,9.30
2019-05-29T13:25:42.495Z,10.17
2019-05-29T13:28:11.997Z,10.27
2019-05-29T13:30:41.288Z,9.30
2019-05-29T13:33:10.595Z,10.37
2019-05-29T13:35:39.771Z,13.47
2019-05-29T13:38:08.916Z,8.03
2019-05-29T13:40:38.179Z,8.30
2019-05-29T13:43:15.066Z,9.47
2019-05-29T13:45:38.346Z,10.00
2019-05-29T13:48:07.649Z,8.80
2019-05-29T13:50:37.155Z,10.63
2019-05-29T13:53:07.594Z,9.27
2019-05-29T13:55:36.956Z,8.93
2019-05-29T13:58:06.158Z,8.93
2019-05-29T14:00:35.502Z,9.30
2019-05-29T14:03:04.995Z,7.73
2019-05-29T14:05:35.675Z,7.67
2019-05-29T14:08:04.978Z,7.40
2019-05-29T14:10:34.240Z,7.50
2019-05-29T14:13:03.474Z,9.87
2019-05-29T14:15:32.912Z,7.87
2019-05-29T14:18:02.814Z,7.87
2019-05-29T14:20:32.457Z,8.07
2019-05-29T14:23:03.208Z,8.53
2019-05-29T14:25:32.722Z,8.23
2019-05-29T14:28:02.603Z,8.67
2019-05-29T14:30:32.226Z,9.90
2019-05-29T14:33:02.313Z,8.00
2019-05-29T14:35:32.038Z,7.67
2019-05-29T14:38:01.430Z,9.17
2019-05-29T14:40:30.660Z,6.43
2019-05-29T14:42:59.857Z,7.80
2019-05-29T14:45:29.092Z,7.20
2019-05-29T14:47:58.650Z,6.90
2019-05-29T14:50:27.827Z,6.27
2019-05-29T14:52:57.098Z,6.27
2019-05-29T14:55:26.352Z,7.23
2019-05-29T14:57:55.585Z,5.90
2019-05-29T15:00:25.822Z,7.00
2019-05-29T15:02:55.209Z,5.70
2019-05-29T15:05:24.393Z,5.40
2019-05-29T15:07:53.785Z,5.27
2019-05-29T15:10:27.469Z,5.10
2019-05-29T15:12:57.949Z,4.80
2019-05-29T15:15:25.298Z,5.43
2019-05-29T15:17:54.859Z,4.67
2019-05-29T15:20:24.275Z,6.07
2019-05-29T15:22:53.760Z,4.80
2019-05-29T15:25:24.569Z,4.93
2019-05-29T15:27:54.025Z,5.23
2019-05-29T15:30:24.089Z,5.27
2019-05-29T15:32:53.750Z,5.67
2019-05-29T15:35:23.875Z,5.37
2019-05-29T15:37:53.526Z,5.40
2019-05-29T15:40:23.263Z,6.03
2019-05-29T15:42:52.463Z,5.37
2019-05-29T15:45:21.945Z,5.37
2019-05-29T15:47:51.298Z,4.60
2019-05-29T15:50:20.826Z,5.37
2019-05-29T15:52:50.114Z,4.67
2019-05-29T15:55:29.727Z,4.37
2019-05-29T15:57:50.684Z,4.17
2019-05-29T16:00:20.248Z,4.63
2019-05-29T16:02:49.996Z,4.43
2019-05-29T16:05:19.866Z,5.10
2019-05-29T16:07:49.429Z,4.37
2019-05-29T16:10:20.991Z,5.10
2019-05-29T16:12:50.339Z,5.33
2019-05-29T16:15:19.873Z,4.27
2019-05-29T16:17:49.060Z,5.20
2019-05-29T16:20:19.072Z,5.87
2019-05-29T16:22:48.338Z,5.80
2019-05-29T16:25:19.228Z,4.20
2019-05-29T16:27:48.609Z,4.33
2019-05-29T16:30:19.887Z,4.23
2019-05-29T16:32:49.739Z,5.17
2019-05-29T16:35:20.024Z,6.30
2019-05-29T16:37:49.304Z,6.07
2019-05-29T16:40:19.918Z,14.77
2019-05-29T16:42:49.582Z,9.03
2019-05-29T16:45:20.329Z,11.40
2019-05-29T16:47:50.196Z,5.90
2019-05-29T16:50:21.132Z,5.20
2019-05-29T16:52:50.582Z,6.33
2019-05-29T16:55:21.066Z,5.10
2019-05-29T16:57:51.197Z,4.40
2019-05-29T17:00:21.809Z,4.97
2019-05-29T17:02:51.786Z,6.03
2019-05-29T17:05:22.183Z,5.27
2019-05-29T17:07:51.625Z,5.60
2019-05-29T17:10:25.263Z,4.97
2019-05-29T17:12:54.494Z,6.10
2019-05-29T17:15:24.752Z,4.10
2019-05-29T17:17:54.239Z,5.40
2019-05-29T17:20:38.431Z,4.27
2019-05-29T17:23:08.117Z,4.97
2019-05-29T17:25:37.529Z,3.83
2019-05-29T17:28:06.913Z,3.70
2019-05-29T17:30:36.267Z,3.27
2019-05-29T17:33:06.327Z,3.43
2019-05-29T17:35:35.525Z,4.23
2019-05-29T17:38:05.054Z,3.87
2019-05-29T17:40:34.418Z,4.03
2019-05-29T17:43:04.374Z,5.03
2019-05-29T17:45:34.005Z,3.47
2019-05-29T17:48:03.307Z,3.30
2019-05-29T17:50:32.795Z,4.73
2019-05-29T17:53:02.137Z,6.57
2019-05-29T17:55:31.773Z,5.43
2019-05-29T17:58:01.252Z,4.80
2019-05-29T18:00:30.619Z,5.77
2019-05-29T18:03:00.181Z,4.90
2019-05-29T18:05:29.474Z,5.17
2019-05-29T18:08:01.614Z,4.33
2019-05-29T18:10:29.921Z,4.10
2019-05-29T18:12:59.678Z,4.70
2019-05-29T18:15:28.862Z,4.83
2019-05-29T18:17:58.118Z,4.50
2019-05-29T18:20:27.900Z,4.23
2019-05-29T18:22:57.432Z,4.47
2019-05-29T18:25:28.129Z,4.00
2019-05-29T18:27:57.501Z,4.83
2019-05-29T18:30:28.804Z,4.70
2019-05-29T18:32:58.259Z,5.03
2019-05-29T18:35:28.987Z,4.30
2019-05-29T18:37:58.357Z,5.80
2019-05-29T18:40:28.393Z,4.80
2019-05-29T18:42:58.016Z,3.83
2019-05-29T18:45:28.254Z,3.70
2019-05-29T18:47:58.527Z,3.70
2019-05-29T18:50:28.157Z,3.00
2019-05-29T18:52:57.392Z,2.70
2019-05-29T18:55:27.120Z,3.37
2019-05-29T18:57:56.333Z,2.77
2019-05-29T19:00:27.358Z,2.73
2019-05-29T19:02:56.996Z,2.40
2019-05-29T19:05:27.612Z,2.63
2019-05-29T19:07:57.007Z,2.23
2019-05-29T19:10:26.284Z,3.03
2019-05-29T19:12:55.480Z,3.50
2019-05-29T19:15:25.939Z,5.33
2019-05-29T19:17:55.364Z,3.40
2019-05-29T19:20:26.268Z,2.87
2019-05-29T19:22:55.691Z,2.80
2019-05-29T19:25:25.257Z,2.00
2019-05-29T19:27:55.132Z,2.50
2019-05-29T19:30:24.832Z,2.77
2019-05-29T19:32:54.168Z,2.53
2019-05-29T19:35:23.766Z,1.97
2019-05-29T19:37:53.741Z,4.20
2019-05-29T19:40:24.009Z,2.67
2019-05-29T19:42:54.699Z,3.17
2019-05-29T19:45:24.716Z,2.00
2019-05-29T19:47:54.095Z,3.67
2019-05-29T19:50:24.593Z,2.37
2019-05-29T19:52:53.986Z,1.60
2019-05-29T19:55:23.506Z,1.50
2019-05-29T19:57:56.497Z,2.53
2019-05-29T20:00:24.048Z,2.20
2019-05-29T20:02:53.369Z,2.10
2019-05-29T20:05:22.663Z,1.60
2019-05-29T20:07:52.369Z,3.03
2019-05-29T20:10:21.986Z,1.97
2019-05-29T20:12:51.654Z,1.70
2019-05-29T20:15:21.373Z,2.30
2019-05-29T20:17:50.621Z,2.03
2019-05-29T20:20:20.308Z,1.40
2019-05-29T20:22:49.620Z,1.67
2019-05-29T20:25:19.233Z,3.47
2019-05-29T20:28:13.274Z,2.23
2019-05-29T20:30:42.749Z,2.00
2019-05-29T20:33:12.415Z,2.30
2019-05-29T20:35:41.726Z,1.77
2019-05-29T20:38:11.522Z,2.63
2019-05-29T20:40:41.369Z,2.07
2019-05-29T20:43:27.315Z,1.70
2019-05-29T20:45:56.510Z,1.63
2019-05-29T20:48:32.955Z,1.87
2019-05-29T20:51:02.176Z,2.20
2019-05-29T20:53:31.753Z,4.63
2019-05-29T20:56:01.076Z,1.60
2019-05-29T20:58:41.943Z,1.73
2019-05-29T21:01:11.350Z,2.90
2019-05-29T21:03:40.993Z,2.43
2019-05-29T21:06:10.328Z,3.07
2019-05-29T21:08:39.507Z,1.90
2019-05-29T21:11:09.117Z,1.67
2019-05-29T21:13:39.437Z,2.80
2019-05-29T21:16:09.112Z,2.20
2019-05-29T21:18:39.847Z,2.77
2019-05-29T21:21:09.196Z,4.47
2019-05-29T21:23:38.717Z,4.70
2019-05-29T21:26:08.281Z,2.70
2019-05-29T21:28:44.444Z,2.70
2019-05-29T21:31:09.156Z,2.53
2019-05-29T21:33:42.445Z,3.63
2019-05-29T21:36:09.659Z,2.23
2019-05-29T21:38:40.129Z,2.77
2019-05-29T21:41:09.398Z,2.67
2019-05-29T21:43:38.672Z,2.50
2019-05-29T21:46:08.206Z,2.50
2019-05-29T21:48:37.442Z,4.33
2019-05-29T21:51:06.673Z,2.50
2019-05-29T21:53:37.166Z,3.80
2019-05-29T21:56:06.452Z,2.30
2019-05-29T21:58:35.625Z,4.40
2019-05-29T22:01:05.284Z,2.40
2019-05-29T22:03:34.623Z,2.90
2019-05-29T22:06:04.156Z,3.37
2019-05-29T22:08:33.966Z,2.50
2019-05-29T22:11:03.189Z,3.00
2019-05-29T22:13:32.430Z,4.43
2019-05-29T22:16:01.684Z,2.93
2019-05-29T22:18:30.852Z,3.13
2019-05-29T22:21:01.566Z,2.60
2019-05-29T22:23:31.391Z,3.00
2019-05-29T22:26:01.555Z,2.97
2019-05-29T22:28:30.903Z,3.03
2019-05-29T22:31:01.589Z,2.80
2019-05-29T22:33:30.959Z,2.57
2019-05-29T22:36:00.193Z,4.73
2019-05-29T22:38:29.655Z,4.27
2019-05-29T22:40:59.686Z,2.80
2019-05-29T22:43:29.134Z,2.67
2019-05-29T22:45:58.399Z,3.10
2019-05-29T22:48:27.560Z,2.70
2019-05-29T22:50:57.761Z,3.00
2019-05-29T22:53:27.093Z,3.50
2019-05-29T22:55:56.350Z,3.43
2019-05-29T22:58:25.578Z,3.60
2019-05-29T23:00:55.940Z,3.53
2019-05-29T23:03:25.551Z,3.30
2019-05-29T23:05:54.729Z,3.67
2019-05-29T23:08:43.048Z,3.53
2019-05-29T23:11:12.413Z,3.63
2019-05-29T23:13:42.003Z,4.83
2019-05-29T23:16:11.271Z,4.67
2019-05-29T23:18:40.513Z,4.00
2019-05-29T23:21:10.330Z,3.20
2019-05-29T23:23:39.957Z,3.40
2019-05-29T23:26:09.116Z,4.20
2019-05-29T23:28:38.318Z,4.70
2019-05-29T23:31:07.544Z,4.10
2019-05-29T23:33:37.257Z,3.50
2019-05-29T23:36:06.452Z,3.70
2019-05-29T23:38:35.680Z,3.67
2019-05-29T23:41:04.867Z,5.50
2019-05-29T23:43:34.341Z,3.87
2019-05-29T23:46:04.029Z,3.40
2019-05-29T23:48:33.677Z,4.17
2019-05-29T23:51:03.805Z,3.67
2019-05-29T23:53:33.519Z,3.83
2019-05-29T23:56:03.898Z,4.13
2019-05-29T23:58:33.402Z,5.63
